Fruitland, ID

7:27 AM MST on January 28, 2015 (GMT -0700)
Payette Foothills | Change Station
CLOSE
Current Station
Personal Weather Station
Location: Payette, ID
Elevation: 2209 ft
Nearby Weather Stations
Active Advisory: Dense Fog Advisory

Elev 2209 ft 44.08 °N, 116.92 °W | Updated 12 minutes ago

Overcast
Overcast
28.9 °F
Feels Like 29 °F
N
0.0
Wind Variable Wind from North
Gusts 0.0 mph

Today
High -- | Low -- °F
--% Chance of Precip.
Yesterday
High -- | Low -- °F
Precip. -- in
8:09 AM 5:52 PM
Waxing Gibbous, 65% visible
Pressure 30.34 in
Visibility 1.8 miles
Clouds Scattered Clouds 400 ft
Windchill 29 °F
Dew Point 32 °F
Humidity 40%
Rainfall 0.00 in
Snow Depth Not available.
UV 0 out of 12
Pollen .20 out of 12
Air Quality Not available.
Flu Activity Not available.
SPECI KONO 281422Z AUTO 24004KT 1 3/4SM BR SCT004 M01/M02 A3034 RMK AO2 T10111022

More Conditions Fewer Conditions

Pressure 30.34 in
Visibility 1.8 miles
Clouds Scattered Clouds 400 ft
Windchill 29 °F
Dew Point 32 °F
Humidity 40%
Rainfall 0.00 in
Snow Depth Not available.
UV 0 out of 12
Pollen .20 out of 12
Air Quality Not available.
Flu Activity Not available.
SPECI KONO 281422Z AUTO 24004KT 1 3/4SM BR SCT004 M01/M02 A3034 RMK AO2 T10111022

More Conditions Fewer Conditions

10-Day Weather Forecast

Almanac

Astronomy

Jan. 28, 2015 Rise Set
Actual Time
Civil Twilight
Nautical Twilight
Astronomical Twilight
Moon
Length of Visible Light
Length of Day
Tomorrow will be .
, % of the Moon is Illuminated

Today's Extremes

State Highs State Lows

Community

WunderPhotos

Upload Photos

1,791,151 photos uploaded!

WunderBlogs® & News

Nearby

Air Quality

  Air Quality AQ Index Pollutant
Not available.

Snow Depth

Station Depth Elevation

Earthquake Activity

City Distance Mag. Time & Date
Minimum magnitude displayed is 2.5.

Coastal Water Temperatures

Place Temperature

Nearby Weather Stations